createdAt,value
2019-01-03T00:00:46.253Z,3.33
2019-01-03T00:03:16.743Z,2.60
2019-01-03T00:05:47.551Z,2.42
2019-01-03T00:08:18.246Z,5.53
2019-01-03T00:10:46.567Z,1.30
2019-01-03T00:13:17.562Z,5.23
2019-01-03T00:15:49.682Z,4.50
2019-01-03T00:18:20.779Z,3.30
2019-01-03T00:20:51.493Z,3.43
2019-01-03T00:23:21.896Z,5.30
2019-01-03T00:25:53.045Z,4.90
2019-01-03T00:28:25.166Z,7.30
2019-01-03T00:30:56.178Z,5.50
2019-01-03T00:33:28.132Z,3.27
2019-01-03T00:35:58.449Z,3.13
2019-01-03T00:38:30.192Z,7.27
2019-01-03T00:41:03.200Z,4.50
2019-01-03T00:43:34.034Z,3.80
2019-01-03T00:46:05.085Z,6.83
2019-01-03T00:48:37.230Z,5.33
2019-01-03T00:51:07.969Z,3.97
2019-01-03T00:53:38.261Z,6.40
2019-01-03T00:56:09.341Z,3.37
2019-01-03T00:58:39.944Z,5.93
2019-01-03T01:01:12.238Z,3.60
2019-01-03T01:03:43.347Z,5.50
2019-01-03T01:06:11.929Z,4.83
2019-01-03T01:08:44.062Z,5.90
2019-01-03T01:11:15.652Z,4.90
2019-01-03T01:13:46.297Z,3.67
2019-01-03T01:16:19.449Z,4.90
2019-01-03T01:18:50.493Z,3.73
2019-01-03T01:21:22.160Z,3.67
2019-01-03T01:23:53.274Z,3.67
2019-01-03T01:26:26.460Z,4.73
2019-01-03T01:28:57.433Z,3.23
2019-01-03T01:31:28.393Z,3.80
2019-01-03T01:33:59.364Z,3.00
2019-01-03T01:36:31.554Z,2.92
2019-01-03T01:39:01.851Z,6.93
2019-01-03T01:41:32.905Z,3.03
2019-01-03T01:44:04.029Z,5.07
2019-01-03T01:46:34.121Z,5.30
2019-01-03T01:49:05.234Z,3.53
2019-01-03T01:51:37.222Z,3.53
2019-01-03T01:54:07.519Z,6.80
2019-01-03T01:56:38.606Z,5.37
2019-01-03T01:59:07.721Z,4.70
2019-01-03T02:01:39.235Z,5.87
2019-01-03T02:04:07.626Z,4.20
2019-01-03T02:06:38.521Z,3.63
2019-01-03T02:09:10.704Z,2.00
2019-01-03T02:11:41.839Z,8.53
2019-01-03T02:14:11.468Z,4.63
2019-01-03T02:16:42.450Z,7.13
2019-01-03T02:19:13.117Z,3.10
2019-01-03T02:21:46.065Z,2.97
2019-01-03T02:24:18.174Z,1.70
2019-01-03T02:26:46.761Z,4.60
2019-01-03T02:29:17.935Z,3.07
2019-01-03T02:31:48.434Z,3.17
2019-01-03T02:34:19.174Z,12.20
2019-01-03T02:36:50.150Z,5.90
2019-01-03T02:39:21.137Z,6.73
2019-01-03T02:41:52.224Z,5.00
2019-01-03T02:44:24.241Z,4.20
2019-01-03T02:46:55.186Z,8.20
2019-01-03T02:49:26.404Z,3.70
2019-01-03T02:51:57.373Z,3.97
2019-01-03T02:54:28.351Z,2.20
2019-01-03T02:56:59.327Z,5.45
2019-01-03T02:59:30.449Z,8.60
2019-01-03T03:02:01.530Z,3.30
2019-01-03T03:04:34.458Z,5.47
2019-01-03T03:07:05.085Z,3.40
2019-01-03T03:09:35.801Z,4.17
2019-01-03T03:12:06.719Z,8.93
2019-01-03T03:14:37.690Z,4.37
2019-01-03T03:17:07.456Z,3.10
2019-01-03T03:19:39.331Z,2.90
2019-01-03T03:22:11.326Z,3.80
2019-01-03T03:24:42.415Z,5.35
2019-01-03T03:27:13.453Z,6.00
2019-01-03T03:29:44.397Z,3.67
2019-01-03T03:32:16.564Z,8.85
2019-01-03T03:34:48.773Z,6.00
2019-01-03T03:37:20.910Z,5.10
2019-01-03T03:39:51.488Z,7.40
2019-01-03T03:42:22.586Z,4.08
2019-01-03T03:44:52.841Z,8.10
2019-01-03T03:47:23.870Z,1.70
2019-01-03T03:49:54.964Z,4.00
2019-01-03T03:52:25.777Z,4.07
2019-01-03T03:54:57.909Z,7.70
2019-01-03T03:57:29.929Z,5.20
2019-01-03T04:00:00.899Z,3.67
2019-01-03T04:02:33.037Z,2.33
2019-01-03T04:05:03.832Z,4.30
2019-01-03T04:07:35.059Z,10.80
2019-01-03T04:12:44.089Z,5.25
2019-01-03T04:15:12.905Z,8.73
2019-01-03T04:17:44.980Z,5.67
2019-01-03T04:20:15.765Z,4.50
2019-01-03T04:22:47.884Z,3.43
2019-01-03T04:25:18.356Z,9.90
2019-01-03T04:27:50.398Z,11.13
2019-01-03T04:30:18.953Z,5.13
2019-01-03T04:32:50.068Z,4.40
2019-01-03T04:35:21.174Z,5.43
2019-01-03T04:37:50.791Z,10.13
2019-01-03T04:40:21.823Z,7.37
2019-01-03T04:42:53.698Z,6.17
2019-01-03T04:45:23.999Z,5.73
2019-01-03T04:47:55.629Z,10.67
2019-01-03T04:50:25.707Z,4.87
2019-01-03T04:52:56.854Z,10.37
2019-01-03T04:55:27.144Z,6.50
2019-01-03T04:57:59.110Z,8.90
2019-01-03T05:00:30.252Z,7.57
2019-01-03T05:05:40.642Z,3.10
2019-01-03T05:08:13.073Z,11.18
2019-01-03T05:10:44.020Z,5.20
2019-01-03T05:13:15.138Z,3.00
2019-01-03T05:15:45.876Z,10.57
2019-01-03T05:18:17.886Z,7.70
2019-01-03T05:20:48.065Z,7.90
2019-01-03T05:23:19.113Z,8.13
2019-01-03T05:25:50.233Z,6.00
2019-01-03T05:28:21.327Z,2.95
2019-01-03T05:30:52.442Z,6.40
2019-01-03T05:33:23.545Z,10.48
2019-01-03T05:35:55.673Z,4.57
2019-01-03T05:38:27.407Z,6.03
2019-01-03T05:40:58.487Z,4.47
2019-01-03T05:43:29.209Z,6.17
2019-01-03T05:46:01.861Z,9.33
2019-01-03T05:48:34.861Z,3.17
2019-01-03T05:51:05.904Z,15.33
2019-01-03T05:53:36.649Z,6.97
2019-01-03T05:56:06.944Z,8.00
2019-01-03T05:58:38.962Z,4.28
2019-01-03T06:01:11.095Z,7.03
2019-01-03T06:03:41.356Z,7.50
2019-01-03T06:06:12.497Z,6.63
2019-01-03T06:08:43.184Z,8.13
2019-01-03T06:11:14.239Z,7.23
2019-01-03T06:13:45.291Z,7.03
2019-01-03T06:16:16.421Z,7.60
2019-01-03T06:18:47.485Z,16.93
2019-01-03T06:21:18.454Z,7.30
2019-01-03T06:23:49.525Z,6.72
2019-01-03T06:26:18.111Z,7.53
2019-01-03T06:28:46.829Z,9.20
2019-01-03T06:31:19.015Z,8.93
2019-01-03T06:33:51.116Z,17.73
2019-01-03T06:36:23.234Z,23.27
2019-01-03T06:38:56.253Z,9.20
2019-01-03T06:41:27.898Z,10.53
2019-01-03T06:43:58.906Z,9.73
2019-01-03T06:46:28.144Z,4.33
2019-01-03T06:48:59.174Z,9.63
2019-01-03T06:51:30.056Z,12.70
2019-01-03T06:54:01.125Z,6.87
2019-01-03T06:56:33.279Z,9.97
2019-01-03T06:59:03.592Z,14.47
2019-01-03T07:01:34.733Z,7.97
2019-01-03T07:04:03.338Z,6.83
2019-01-03T07:06:35.445Z,9.07
2019-01-03T07:09:08.990Z,8.40
2019-01-03T07:11:40.862Z,12.63
2019-01-03T07:14:10.799Z,16.13
2019-01-03T07:16:42.840Z,9.50
2019-01-03T07:19:14.789Z,8.60
2019-01-03T07:21:43.573Z,11.93
2019-01-03T07:24:13.854Z,9.60
2019-01-03T07:26:45.413Z,9.30
2019-01-03T07:29:16.524Z,7.37
2019-01-03T07:31:48.556Z,5.63
2019-01-03T07:34:20.579Z,10.70
2019-01-03T07:36:51.173Z,11.28
2019-01-03T07:39:22.397Z,8.23
2019-01-03T07:41:55.501Z,6.95
2019-01-03T07:44:26.478Z,10.98
2019-01-03T07:46:58.579Z,6.13
2019-01-03T07:49:29.680Z,9.55
2019-01-03T07:52:00.439Z,7.97
2019-01-03T07:54:31.622Z,5.47
2019-01-03T07:57:02.768Z,10.18
2019-01-03T07:59:33.378Z,13.10
2019-01-03T08:02:05.535Z,6.80
2019-01-03T08:04:36.526Z,16.90
2019-01-03T08:07:07.235Z,4.17
2019-01-03T08:09:38.212Z,7.60
2019-01-03T08:12:10.226Z,8.83
2019-01-03T08:14:38.960Z,11.03
2019-01-03T08:17:08.380Z,11.90
2019-01-03T08:19:40.493Z,9.37
2019-01-03T08:22:12.686Z,4.67
2019-01-03T08:24:43.447Z,8.50
2019-01-03T08:27:14.522Z,10.90
2019-01-03T08:29:47.200Z,10.85
2019-01-03T08:32:18.159Z,7.83
2019-01-03T08:34:49.269Z,9.60
2019-01-03T08:37:21.342Z,11.10
2019-01-03T08:39:53.365Z,8.00
2019-01-03T08:42:24.384Z,12.90
2019-01-03T08:44:55.802Z,14.43
2019-01-03T08:47:26.167Z,12.67
2019-01-03T08:49:58.261Z,11.00
2019-01-03T08:52:27.307Z,17.00
2019-01-03T08:54:59.551Z,15.90
2019-01-03T08:57:31.734Z,28.07
2019-01-03T09:00:03.742Z,17.43
2019-01-03T09:02:35.313Z,16.30
2019-01-03T09:05:06.774Z,12.83
2019-01-03T09:07:38.737Z,15.93
2019-01-03T09:10:10.498Z,15.40
2019-01-03T09:12:41.475Z,13.87
2019-01-03T09:15:13.453Z,11.00
2019-01-03T09:17:44.080Z,16.63
2019-01-03T09:20:17.313Z,10.82
2019-01-03T09:22:48.329Z,11.63
2019-01-03T09:25:16.908Z,11.40
2019-01-03T09:27:48.896Z,16.27
2019-01-03T09:30:20.014Z,12.70
2019-01-03T09:32:51.905Z,18.23
2019-01-03T09:35:22.630Z,20.07
2019-01-03T09:37:53.337Z,14.03
2019-01-03T09:40:24.324Z,14.43
2019-01-03T09:42:54.615Z,20.73
2019-01-03T09:45:22.966Z,18.30
2019-01-03T09:47:51.300Z,22.20
2019-01-03T09:50:19.662Z,11.70
2019-01-03T09:52:48.035Z,15.77
2019-01-03T09:55:16.384Z,19.17
2019-01-03T09:57:44.730Z,22.43
2019-01-03T10:00:13.190Z,20.27
2019-01-03T10:02:41.701Z,11.10
2019-01-03T10:05:11.396Z,12.33
2019-01-03T10:07:39.718Z,12.53
2019-01-03T10:10:08.392Z,21.43
2019-01-03T10:12:36.698Z,11.97
2019-01-03T10:15:05.782Z,9.43
2019-01-03T10:17:34.107Z,16.40
2019-01-03T10:20:02.642Z,17.77
2019-01-03T10:22:31.062Z,13.70
2019-01-03T10:24:59.397Z,13.30
2019-01-03T10:27:27.789Z,14.73
2019-01-03T10:29:56.189Z,14.83
2019-01-03T10:32:24.583Z,15.60
2019-01-03T10:34:53.011Z,14.38
2019-01-03T10:37:21.389Z,16.23
2019-01-03T10:39:49.700Z,15.63
2019-01-03T10:42:18.151Z,13.60
2019-01-03T10:44:46.485Z,25.80
2019-01-03T10:47:14.830Z,21.63
2019-01-03T10:49:43.167Z,17.60
2019-01-03T10:52:11.564Z,18.10
2019-01-03T10:54:39.905Z,16.97
2019-01-03T10:57:08.687Z,18.93
2019-01-03T10:59:37.028Z,14.93
2019-01-03T11:02:06.013Z,27.65
2019-01-03T11:04:35.050Z,18.63
2019-01-03T11:07:03.781Z,26.43
2019-01-03T11:09:32.738Z,25.45
2019-01-03T11:12:01.615Z,27.13
2019-01-03T11:14:30.702Z,39.73
2019-01-03T11:16:59.852Z,19.17
2019-01-03T11:19:28.167Z,13.60
2019-01-03T11:22:00.823Z,21.03
2019-01-03T11:24:29.206Z,21.97
2019-01-03T11:26:57.573Z,25.10
2019-01-03T11:29:25.925Z,23.52
2019-01-03T11:31:54.284Z,23.10
2019-01-03T11:34:22.633Z,22.33
2019-01-03T11:36:50.963Z,23.13
2019-01-03T11:39:19.302Z,25.07
2019-01-03T11:41:47.637Z,22.10
2019-01-03T11:44:16.001Z,19.55
2019-01-03T11:46:44.315Z,22.07
2019-01-03T11:49:12.664Z,20.70
2019-01-03T11:51:41.007Z,18.57
2019-01-03T11:54:09.713Z,22.47
2019-01-03T11:56:38.111Z,17.30
2019-01-03T11:59:06.466Z,18.70
2019-01-03T12:01:34.878Z,19.87
2019-01-03T12:04:03.218Z,18.30
2019-01-03T12:06:31.565Z,19.90
2019-01-03T12:08:59.920Z,19.60
2019-01-03T12:11:28.274Z,20.93
2019-01-03T12:13:56.583Z,16.20
2019-01-03T12:16:24.949Z,21.53
2019-01-03T12:18:53.293Z,23.20
2019-01-03T12:21:21.667Z,17.63
2019-01-03T12:23:49.977Z,20.60
2019-01-03T12:26:18.358Z,21.37
2019-01-03T12:28:46.738Z,21.63
2019-01-03T12:31:16.108Z,24.85
2019-01-03T12:33:44.445Z,22.43
2019-01-03T12:36:12.797Z,18.70
2019-01-03T12:38:41.157Z,19.57
2019-01-03T12:41:09.923Z,18.00
2019-01-03T12:43:38.253Z,19.23
2019-01-03T12:46:06.686Z,20.05
2019-01-03T12:48:35.074Z,23.80
2019-01-03T12:51:03.490Z,23.10
2019-01-03T12:53:31.834Z,20.10
2019-01-03T12:56:00.195Z,21.23
2019-01-03T12:58:28.514Z,22.20
2019-01-03T13:00:56.906Z,23.13
2019-01-03T13:03:25.286Z,19.53
2019-01-03T13:05:53.636Z,20.87
2019-01-03T13:08:21.966Z,20.00
2019-01-03T13:10:50.295Z,18.57
2019-01-03T13:13:18.658Z,29.17
2019-01-03T13:15:47.017Z,27.33
2019-01-03T13:18:15.361Z,23.70
2019-01-03T13:20:43.698Z,27.30
2019-01-03T13:23:12.153Z,32.53
2019-01-03T13:25:40.517Z,22.87
2019-01-03T13:28:09.261Z,27.30
2019-01-03T13:30:37.806Z,23.47
2019-01-03T13:33:06.229Z,27.47
2019-01-03T13:35:34.554Z,24.37
2019-01-03T13:38:02.919Z,23.20
2019-01-03T13:40:31.248Z,28.87
2019-01-03T13:42:59.590Z,25.83
2019-01-03T13:45:27.930Z,33.33
2019-01-03T13:47:56.274Z,23.37
2019-01-03T13:50:24.606Z,27.77
2019-01-03T13:52:52.969Z,25.33
2019-01-03T13:55:21.290Z,21.95
2019-01-03T13:57:49.637Z,29.57
2019-01-03T14:00:17.965Z,27.50
2019-01-03T14:02:46.333Z,22.70
2019-01-03T14:05:14.692Z,26.63
2019-01-03T14:07:43.079Z,27.30
2019-01-03T14:10:11.750Z,24.60
2019-01-03T14:12:40.098Z,22.15
2019-01-03T14:15:09.027Z,25.93
2019-01-03T14:17:37.484Z,22.80
2019-01-03T14:20:10.583Z,24.10
2019-01-03T14:22:39.291Z,25.97
2019-01-03T14:25:07.673Z,18.40
2019-01-03T14:27:36.094Z,23.80
2019-01-03T14:30:06.138Z,21.13
2019-01-03T14:32:35.521Z,22.65
2019-01-03T14:35:04.237Z,18.37
2019-01-03T14:37:32.645Z,24.20
2019-01-03T14:40:00.996Z,22.10
2019-01-03T14:42:29.405Z,18.47
2019-01-03T14:44:57.744Z,31.23
2019-01-03T14:47:26.093Z,16.17
2019-01-03T14:49:54.446Z,21.30
2019-01-03T14:52:22.788Z,18.53
2019-01-03T14:54:51.122Z,18.87
2019-01-03T14:57:19.459Z,19.90
2019-01-03T14:59:47.818Z,23.77
2019-01-03T15:02:16.161Z,18.83
2019-01-03T15:04:44.517Z,19.77
2019-01-03T15:07:12.853Z,21.20
2019-01-03T15:09:41.206Z,19.10
2019-01-03T15:12:09.908Z,17.03
2019-01-03T15:14:38.338Z,15.83
2019-01-03T15:17:06.705Z,19.33
2019-01-03T15:19:35.085Z,20.47
2019-01-03T15:22:03.550Z,19.40
2019-01-03T15:24:33.031Z,21.62
2019-01-03T15:27:01.485Z,16.50
2019-01-03T15:29:29.837Z,31.93
2019-01-03T15:31:58.173Z,29.40
2019-01-03T15:34:26.590Z,26.70
2019-01-03T15:36:54.994Z,26.65
2019-01-03T15:39:23.323Z,24.87
2019-01-03T15:41:51.718Z,28.50
2019-01-03T15:47:22.224Z,27.40
2019-01-03T15:49:50.602Z,26.20
2019-01-03T15:52:19.041Z,31.30
2019-01-03T15:54:47.389Z,23.03
2019-01-03T15:57:15.734Z,22.63
2019-01-03T15:59:44.100Z,27.83
2019-01-03T16:02:12.682Z,26.83
2019-01-03T16:04:41.039Z,28.20
2019-01-03T16:07:09.410Z,32.07
2019-01-03T16:09:37.763Z,32.90
2019-01-03T16:12:06.155Z,25.33
2019-01-03T16:14:34.501Z,24.80
2019-01-03T16:17:03.598Z,26.80
2019-01-03T16:19:31.962Z,22.40
2019-01-03T16:22:00.297Z,22.07
2019-01-03T16:24:28.646Z,23.12
2019-01-03T16:26:57.003Z,25.07
2019-01-03T16:29:25.399Z,27.90
2019-01-03T16:31:53.741Z,24.50
2019-01-03T16:34:22.102Z,21.80
2019-01-03T16:36:50.415Z,28.70
2019-01-03T16:39:18.809Z,30.40
2019-01-03T16:41:47.110Z,31.37
2019-01-03T16:44:15.837Z,34.77
2019-01-03T16:46:44.207Z,30.48
2019-01-03T16:49:12.602Z,34.33
2019-01-03T16:51:41.086Z,29.13
2019-01-03T16:54:09.489Z,28.43
2019-01-03T16:56:37.877Z,28.85
2019-01-03T16:59:06.205Z,26.27
2019-01-03T17:01:34.580Z,25.90
2019-01-03T17:04:02.942Z,27.20
2019-01-03T17:06:31.330Z,26.70
2019-01-03T17:08:59.672Z,26.67
2019-01-03T17:11:28.041Z,26.20
2019-01-03T17:13:56.422Z,30.43
2019-01-03T17:16:25.202Z,22.37
2019-01-03T17:18:53.549Z,28.10
2019-01-03T17:21:21.904Z,28.20
2019-01-03T17:23:50.275Z,23.10
2019-01-03T17:26:18.628Z,20.90
2019-01-03T17:28:46.993Z,20.37
2019-01-03T17:31:15.539Z,24.83
2019-01-03T17:33:43.934Z,25.50
2019-01-03T17:36:12.359Z,22.67
2019-01-03T17:38:40.746Z,25.13
2019-01-03T17:41:09.118Z,29.55
2019-01-03T17:43:37.440Z,28.87
2019-01-03T17:46:05.832Z,21.70
2019-01-03T17:48:34.271Z,19.55
2019-01-03T17:51:02.794Z,22.70
2019-01-03T17:53:31.154Z,22.07
2019-01-03T17:55:59.530Z,27.07
2019-01-03T17:58:27.870Z,26.17
2019-01-03T18:00:56.222Z,25.60
2019-01-03T18:03:24.731Z,26.97
2019-01-03T18:05:53.215Z,28.67
2019-01-03T18:08:21.543Z,24.83
2019-01-03T18:10:49.936Z,26.37
2019-01-03T18:13:18.833Z,22.63
2019-01-03T18:15:47.213Z,27.23
2019-01-03T18:18:15.661Z,24.27
2019-01-03T18:20:44.198Z,32.83
2019-01-03T18:23:13.165Z,30.57
2019-01-03T18:25:41.589Z,27.37
2019-01-03T18:28:09.955Z,25.50
2019-01-03T18:30:38.285Z,24.53
2019-01-03T18:33:06.648Z,26.43
2019-01-03T18:35:34.992Z,31.93
2019-01-03T18:38:03.372Z,26.90
2019-01-03T18:40:31.725Z,26.37
2019-01-03T18:43:00.085Z,30.48
2019-01-03T18:45:28.409Z,32.30
2019-01-03T18:47:56.777Z,28.83
2019-01-03T18:50:25.150Z,32.00
2019-01-03T18:52:53.532Z,25.70
2019-01-03T18:55:22.020Z,32.50
2019-01-03T18:57:50.430Z,25.23
2019-01-03T19:00:19.011Z,29.20
2019-01-03T19:02:47.449Z,29.72
2019-01-03T19:05:16.488Z,23.83
2019-01-03T19:07:44.807Z,24.40
2019-01-03T19:10:13.657Z,25.67
2019-01-03T19:12:42.009Z,29.10
2019-01-03T19:15:11.394Z,31.20
2019-01-03T19:17:39.781Z,28.67
2019-01-03T19:20:09.627Z,30.17
2019-01-03T19:22:38.113Z,32.17
2019-01-03T19:25:09.820Z,33.70
2019-01-03T19:27:38.176Z,32.50
2019-01-03T19:30:09.751Z,34.10
2019-01-03T19:32:38.185Z,27.32
2019-01-03T19:35:08.785Z,25.30
2019-01-03T19:37:37.149Z,30.17
2019-01-03T19:40:09.201Z,30.53
2019-01-03T19:42:37.562Z,31.63
2019-01-03T19:45:09.058Z,30.72
2019-01-03T19:47:37.404Z,29.00
2019-01-03T19:50:09.573Z,32.70
2019-01-03T19:52:37.988Z,35.03
2019-01-03T19:55:07.750Z,27.70
2019-01-03T19:57:36.085Z,29.30
2019-01-03T20:00:07.849Z,31.80
2019-01-03T20:02:36.246Z,33.10
2019-01-03T20:05:05.307Z,27.47
2019-01-03T20:07:33.707Z,30.43
2019-01-03T20:10:02.052Z,23.80
2019-01-03T20:12:30.375Z,46.42
2019-01-03T20:14:58.840Z,31.00
2019-01-03T20:17:27.209Z,31.17
2019-01-03T20:19:55.575Z,33.13
2019-01-03T20:22:23.918Z,31.67
2019-01-03T20:24:52.281Z,39.80
2019-01-03T20:27:20.699Z,24.47
2019-01-03T20:29:49.129Z,26.83
2019-01-03T20:32:17.466Z,28.73
2019-01-03T20:34:45.837Z,30.63
2019-01-03T20:37:14.423Z,29.50
2019-01-03T20:39:43.099Z,26.80
2019-01-03T20:42:11.616Z,37.87
2019-01-03T20:44:39.973Z,21.87
2019-01-03T20:47:08.416Z,26.50
2019-01-03T20:49:36.744Z,32.60
2019-01-03T20:52:05.130Z,31.53
2019-01-03T20:54:33.704Z,32.00
2019-01-03T20:57:03.053Z,37.97
2019-01-03T20:59:32.032Z,38.63
2019-01-03T21:02:01.487Z,37.97
2019-01-03T21:04:30.155Z,43.37
2019-01-03T21:06:58.546Z,38.63
2019-01-03T21:09:26.888Z,30.63
2019-01-03T21:11:55.240Z,29.77
2019-01-03T21:14:23.634Z,31.00
2019-01-03T21:16:51.973Z,39.33
2019-01-03T21:19:20.401Z,34.37
2019-01-03T21:21:48.705Z,42.05
2019-01-03T21:24:17.205Z,37.27
2019-01-03T21:26:45.834Z,39.47
2019-01-03T21:29:14.195Z,30.37
2019-01-03T21:31:42.541Z,33.17
2019-01-03T21:34:11.075Z,26.30
2019-01-03T21:36:39.442Z,38.63
2019-01-03T21:39:07.969Z,28.70
2019-01-03T21:41:36.621Z,36.33
2019-01-03T21:44:04.954Z,29.75
2019-01-03T21:46:33.425Z,43.37
2019-01-03T21:49:01.977Z,43.07
2019-01-03T21:51:30.525Z,35.20
2019-01-03T21:53:58.848Z,34.20
2019-01-03T21:56:27.476Z,34.65
2019-01-03T21:58:55.849Z,38.03
2019-01-03T22:01:24.313Z,28.80
2019-01-03T22:03:52.652Z,31.13
2019-01-03T22:06:21.010Z,30.30
2019-01-03T22:08:49.335Z,37.00
2019-01-03T22:11:17.888Z,34.07
2019-01-03T22:13:46.211Z,42.47
2019-01-03T22:16:15.085Z,36.23
2019-01-03T22:18:43.469Z,44.47
2019-01-03T22:21:11.914Z,37.37
2019-01-03T22:23:40.238Z,34.53
2019-01-03T22:26:08.603Z,48.70
2019-01-03T22:28:37.141Z,40.57
2019-01-03T22:31:05.582Z,39.90
2019-01-03T22:33:35.759Z,34.05
2019-01-03T22:36:04.252Z,38.77
2019-01-03T22:38:32.598Z,35.28
2019-01-03T22:41:00.949Z,30.30
2019-01-03T22:43:30.500Z,33.73
2019-01-03T22:45:58.845Z,33.27
2019-01-03T22:48:27.198Z,28.03
2019-01-03T22:50:55.579Z,40.90
2019-01-03T22:53:24.002Z,41.50
2019-01-03T22:55:52.330Z,47.90
2019-01-03T22:58:21.513Z,74.33
2019-01-03T23:00:50.505Z,50.73
2019-01-03T23:03:18.853Z,83.17
2019-01-03T23:05:47.196Z,73.40
2019-01-03T23:08:15.880Z,107.83
2019-01-03T23:10:44.273Z,125.93
2019-01-03T23:13:12.999Z,49.80
2019-01-03T23:15:41.387Z,117.23
2019-01-03T23:18:09.716Z,76.87
2019-01-03T23:20:38.143Z,60.27
2019-01-03T23:23:06.489Z,49.10
2019-01-03T23:25:34.834Z,49.10
2019-01-03T23:28:03.191Z,44.30
2019-01-03T23:30:31.537Z,39.03
2019-01-03T23:32:59.881Z,40.70
2019-01-03T23:35:28.204Z,51.80
2019-01-03T23:37:56.577Z,38.80
2019-01-03T23:40:24.939Z,52.03
2019-01-03T23:42:53.496Z,38.97
2019-01-03T23:45:22.017Z,45.50
2019-01-03T23:47:51.589Z,90.50
2019-01-03T23:50:25.398Z,36.33
2019-01-03T23:52:53.841Z,65.00
2019-01-03T23:55:23.102Z,30.17
2019-01-03T23:57:51.497Z,39.60
